aviador You're here: Registered users don't get ADS Register

NEW METAR Heatmap

VNKT Decoded Metar

KATHMANDU in NEPAL
Report Time2014-04-16 18:50:00
UTC Time2014-04-16 19:20:51
Flight Rules mvfr MVFR
WindCalm
Visibility6000 m
Phenomena:N/A
Clouds:Few 020 Hf
Scattered 025 Hf
Broken 100 Hf
Expected CloudBase > 4,000 ft AGL from Temp-Dew spread
Ceiling10,000 ft
Temp18°C (ISA +12)
Dew Point08°C (52% RH)
AAT17.5°C
QNH1014 hPa
Density Alt5,866 ft
Elevation4,386 ft
Report Wrong Elevation
Raw Report
METAR VNKT 161850Z 00000KT 6000 FEW020 SCT025 BKN100 18/08 Q1014
NOSIG=

Extra information for VNKT:More info

Metar Decoded Metar & Taf Metar Last 4 Metars Taf Meteogram F.Rules Stats Wind Profile Operation Airport Information Weather charts Add Link Nearby VenuesMetar ALERT Social comments Help